sensor_id;sensor_type;location;lat;lon;timestamp;P1;durP1;ratioP1;P2;durP2;ratioP2
14358;SDS011;7263;49.418;11.064;2023-04-24T00:01:23;3.13;;;2.83;;
14358;SDS011;7263;49.418;11.064;2023-04-24T00:03:50;4.23;;;2.47;;
14358;SDS011;7263;49.418;11.064;2023-04-24T00:06:18;3.93;;;2.80;;
14358;SDS011;7263;49.418;11.064;2023-04-24T00:08:45;3.47;;;2.73;;
14358;SDS011;7263;49.418;11.064;2023-04-24T00:11:18;4.23;;;2.33;;
14358;SDS011;7263;49.418;11.064;2023-04-24T00:13:48;3.80;;;2.60;;
14358;SDS011;7263;49.418;11.064;2023-04-24T00:16:24;3.50;;;2.87;;
14358;SDS011;7263;49.418;11.064;2023-04-24T00:18:51;3.83;;;2.60;;
14358;SDS011;7263;49.418;11.064;2023-04-24T00:21:18;3.60;;;2.63;;
14358;SDS011;7263;49.418;11.064;2023-04-24T00:23:46;2.80;;;2.47;;
14358;SDS011;7263;49.418;11.064;2023-04-24T00:26:13;3.23;;;2.50;;
14358;SDS011;7263;49.418;11.064;2023-04-24T00:28:43;4.00;;;2.50;;
14358;SDS011;7263;49.418;11.064;2023-04-24T00:31:11;4.83;;;2.80;;
14358;SDS011;7263;49.418;11.064;2023-04-24T00:33:42;2.87;;;2.20;;
14358;SDS011;7263;49.418;11.064;2023-04-24T00:36:12;4.93;;;2.60;;
14358;SDS011;7263;49.418;11.064;2023-04-24T00:38:40;2.90;;;2.40;;
14358;SDS011;7263;49.418;11.064;2023-04-24T00:41:11;3.90;;;2.30;;
14358;SDS011;7263;49.418;11.064;2023-04-24T00:43:39;2.90;;;2.40;;
14358;SDS011;7263;49.418;11.064;2023-04-24T00:46:09;2.63;;;2.07;;
14358;SDS011;7263;49.418;11.064;2023-04-24T00:48:56;3.37;;;2.13;;
14358;SDS011;7263;49.418;11.064;2023-04-24T00:51:25;2.60;;;2.20;;
14358;SDS011;7263;49.418;11.064;2023-04-24T00:53:55;3.10;;;2.20;;
14358;SDS011;7263;49.418;11.064;2023-04-24T00:56:27;3.13;;;2.40;;
14358;SDS011;7263;49.418;11.064;2023-04-24T00:58:55;3.57;;;2.40;;
14358;SDS011;7263;49.418;11.064;2023-04-24T01:01:22;3.83;;;2.47;;
14358;SDS011;7263;49.418;11.064;2023-04-24T01:03:52;2.50;;;2.30;;
14358;SDS011;7263;49.418;11.064;2023-04-24T01:06:23;3.83;;;2.30;;
14358;SDS011;7263;49.418;11.064;2023-04-24T01:08:53;3.50;;;2.30;;
14358;SDS011;7263;49.418;11.064;2023-04-24T01:11:21;3.90;;;2.30;;
14358;SDS011;7263;49.418;11.064;2023-04-24T01:13:48;2.60;;;2.00;;
14358;SDS011;7263;49.418;11.064;2023-04-24T01:16:18;2.37;;;2.17;;
14358;SDS011;7263;49.418;11.064;2023-04-24T01:18:55;3.33;;;2.00;;
14358;SDS011;7263;49.418;11.064;2023-04-24T01:21:22;2.77;;;2.40;;
14358;SDS011;7263;49.418;11.064;2023-04-24T01:24:01;2.93;;;2.63;;
14358;SDS011;7263;49.418;11.064;2023-04-24T01:26:28;2.10;;;2.00;;
14358;SDS011;7263;49.418;11.064;2023-04-24T01:28:55;2.47;;;2.10;;
14358;SDS011;7263;49.418;11.064;2023-04-24T01:31:23;3.03;;;2.10;;
14358;SDS011;7263;49.418;11.064;2023-04-24T01:33:50;2.30;;;2.10;;
14358;SDS011;7263;49.418;11.064;2023-04-24T01:36:21;4.77;;;2.30;;
14358;SDS011;7263;49.418;11.064;2023-04-24T01:38:48;2.33;;;1.90;;
14358;SDS011;7263;49.418;11.064;2023-04-24T01:41:17;4.37;;;1.97;;
14358;SDS011;7263;49.418;11.064;2023-04-24T01:43:48;2.13;;;1.93;;
14358;SDS011;7263;49.418;11.064;2023-04-24T01:46:15;3.37;;;1.87;;
14358;SDS011;7263;49.418;11.064;2023-04-24T01:48:45;2.57;;;1.70;;
14358;SDS011;7263;49.418;11.064;2023-04-24T01:51:12;1.90;;;1.70;;
14358;SDS011;7263;49.418;11.064;2023-04-24T01:53:42;2.10;;;1.90;;
14358;SDS011;7263;49.418;11.064;2023-04-24T01:56:14;2.13;;;1.80;;
14358;SDS011;7263;49.418;11.064;2023-04-24T01:58:43;2.47;;;1.63;;
14358;SDS011;7263;49.418;11.064;2023-04-24T02:01:14;2.43;;;2.00;;
14358;SDS011;7263;49.418;11.064;2023-04-24T02:03:46;3.10;;;1.87;;
14358;SDS011;7263;49.418;11.064;2023-04-24T02:06:13;2.00;;;1.70;;
14358;SDS011;7263;49.418;11.064;2023-04-24T02:08:40;1.70;;;1.53;;
14358;SDS011;7263;49.418;11.064;2023-04-24T02:11:08;3.10;;;1.83;;
14358;SDS011;7263;49.418;11.064;2023-04-24T02:13:42;2.00;;;1.80;;
14358;SDS011;7263;49.418;11.064;2023-04-24T02:16:15;3.23;;;1.77;;
14358;SDS011;7263;49.418;11.064;2023-04-24T02:18:42;1.90;;;1.53;;
14358;SDS011;7263;49.418;11.064;2023-04-24T02:21:09;2.00;;;1.80;;
14358;SDS011;7263;49.418;11.064;2023-04-24T02:23:39;2.80;;;1.67;;
14358;SDS011;7263;49.418;11.064;2023-04-24T02:26:10;1.70;;;1.60;;
14358;SDS011;7263;49.418;11.064;2023-04-24T02:28:37;2.90;;;2.00;;
14358;SDS011;7263;49.418;11.064;2023-04-24T02:31:07;2.50;;;1.60;;
14358;SDS011;7263;49.418;11.064;2023-04-24T02:33:44;1.90;;;1.67;;
14358;SDS011;7263;49.418;11.064;2023-04-24T02:36:13;2.10;;;1.90;;
14358;SDS011;7263;49.418;11.064;2023-04-24T02:38:41;2.00;;;1.80;;
14358;SDS011;7263;49.418;11.064;2023-04-24T02:41:11;2.13;;;1.80;;
14358;SDS011;7263;49.418;11.064;2023-04-24T02:43:43;2.00;;;1.80;;
14358;SDS011;7263;49.418;11.064;2023-04-24T02:46:12;3.53;;;1.80;;
14358;SDS011;7263;49.418;11.064;2023-04-24T02:48:42;2.30;;;1.80;;
14358;SDS011;7263;49.418;11.064;2023-04-24T02:51:09;2.90;;;1.87;;
14358;SDS011;7263;49.418;11.064;2023-04-24T02:53:36;1.70;;;1.53;;
14358;SDS011;7263;49.418;11.064;2023-04-24T02:56:04;3.07;;;1.60;;
14358;SDS011;7263;49.418;11.064;2023-04-24T02:58:31;2.60;;;1.70;;
14358;SDS011;7263;49.418;11.064;2023-04-24T03:00:58;2.23;;;1.70;;
14358;SDS011;7263;49.418;11.064;2023-04-24T03:03:32;2.03;;;1.63;;
14358;SDS011;7263;49.418;11.064;2023-04-24T03:05:59;1.97;;;1.80;;
14358;SDS011;7263;49.418;11.064;2023-04-24T03:08:34;2.40;;;1.77;;
14358;SDS011;7263;49.418;11.064;2023-04-24T03:11:01;2.63;;;1.90;;
14358;SDS011;7263;49.418;11.064;2023-04-24T03:13:28;2.97;;;1.77;;
14358;SDS011;7263;49.418;11.064;2023-04-24T03:15:55;2.77;;;1.80;;
14358;SDS011;7263;49.418;11.064;2023-04-24T03:18:22;3.30;;;2.00;;
14358;SDS011;7263;49.418;11.064;2023-04-24T03:20:51;2.50;;;2.10;;
14358;SDS011;7263;49.418;11.064;2023-04-24T03:23:26;3.17;;;2.33;;
14358;SDS011;7263;49.418;11.064;2023-04-24T03:25:56;3.67;;;1.93;;
14358;SDS011;7263;49.418;11.064;2023-04-24T03:28:26;2.77;;;2.20;;
14358;SDS011;7263;49.418;11.064;2023-04-24T03:30:53;2.93;;;2.07;;
14358;SDS011;7263;49.418;11.064;2023-04-24T03:33:22;2.63;;;2.00;;
14358;SDS011;7263;49.418;11.064;2023-04-24T03:35:58;2.67;;;1.83;;
14358;SDS011;7263;49.418;11.064;2023-04-24T03:38:26;2.17;;;1.90;;
14358;SDS011;7263;49.418;11.064;2023-04-24T03:40:53;2.30;;;2.10;;
14358;SDS011;7263;49.418;11.064;2023-04-24T03:43:22;3.53;;;2.23;;
14358;SDS011;7263;49.418;11.064;2023-04-24T03:45:50;2.97;;;2.37;;
14358;SDS011;7263;49.418;11.064;2023-04-24T03:48:24;11.23;;;9.83;;
14358;SDS011;7263;49.418;11.064;2023-04-24T03:50:52;15.13;;;13.03;;
14358;SDS011;7263;49.418;11.064;2023-04-24T03:53:26;10.47;;;8.90;;
14358;SDS011;7263;49.418;11.064;2023-04-24T03:55:59;6.83;;;5.13;;
14358;SDS011;7263;49.418;11.064;2023-04-24T03:58:27;19.60;;;16.97;;
14358;SDS011;7263;49.418;11.064;2023-04-24T04:00:54;18.83;;;16.20;;
14358;SDS011;7263;49.418;11.064;2023-04-24T04:03:27;9.60;;;8.60;;
14358;SDS011;7263;49.418;11.064;2023-04-24T04:06:00;5.03;;;4.23;;
14358;SDS011;7263;49.418;11.064;2023-04-24T04:08:28;6.83;;;5.80;;
14358;SDS011;7263;49.418;11.064;2023-04-24T04:10:55;5.23;;;3.73;;
14358;SDS011;7263;49.418;11.064;2023-04-24T04:13:25;5.53;;;4.00;;
14358;SDS011;7263;49.418;11.064;2023-04-24T04:15:53;6.43;;;5.70;;
14358;SDS011;7263;49.418;11.064;2023-04-24T04:18:20;7.03;;;3.97;;
14358;SDS011;7263;49.418;11.064;2023-04-24T04:20:53;5.83;;;5.23;;
14358;SDS011;7263;49.418;11.064;2023-04-24T04:23:22;3.13;;;2.63;;
14358;SDS011;7263;49.418;11.064;2023-04-24T04:25:51;3.73;;;3.10;;
14358;SDS011;7263;49.418;11.064;2023-04-24T04:28:26;3.70;;;2.83;;
14358;SDS011;7263;49.418;11.064;2023-04-24T04:30:53;2.60;;;2.40;;
14358;SDS011;7263;49.418;11.064;2023-04-24T04:33:22;4.93;;;3.33;;
14358;SDS011;7263;49.418;11.064;2023-04-24T04:35:53;4.20;;;2.20;;
14358;SDS011;7263;49.418;11.064;2023-04-24T04:38:21;3.23;;;2.90;;
14358;SDS011;7263;49.418;11.064;2023-04-24T04:40:50;3.23;;;2.60;;
14358;SDS011;7263;49.418;11.064;2023-04-24T04:43:17;4.17;;;3.30;;
14358;SDS011;7263;49.418;11.064;2023-04-24T04:45:44;3.17;;;2.87;;
14358;SDS011;7263;49.418;11.064;2023-04-24T04:48:16;3.87;;;3.40;;
14358;SDS011;7263;49.418;11.064;2023-04-24T04:50:46;4.97;;;2.83;;
14358;SDS011;7263;49.418;11.064;2023-04-24T04:53:17;4.57;;;3.30;;
14358;SDS011;7263;49.418;11.064;2023-04-24T04:55:45;3.43;;;3.03;;
14358;SDS011;7263;49.418;11.064;2023-04-24T04:58:14;3.47;;;3.00;;
14358;SDS011;7263;49.418;11.064;2023-04-24T05:00:41;3.10;;;2.83;;
14358;SDS011;7263;49.418;11.064;2023-04-24T05:03:11;5.23;;;4.63;;
14358;SDS011;7263;49.418;11.064;2023-04-24T05:05:38;13.30;;;9.23;;
14358;SDS011;7263;49.418;11.064;2023-04-24T05:08:06;4.00;;;3.03;;
14358;SDS011;7263;49.418;11.064;2023-04-24T05:10:36;3.73;;;2.80;;
14358;SDS011;7263;49.418;11.064;2023-04-24T05:13:09;3.57;;;3.20;;
14358;SDS011;7263;49.418;11.064;2023-04-24T05:15:40;3.27;;;2.97;;
14358;SDS011;7263;49.418;11.064;2023-04-24T05:18:07;10.43;;;3.10;;
14358;SDS011;7263;49.418;11.064;2023-04-24T05:20:34;9.67;;;3.20;;
14358;SDS011;7263;49.418;11.064;2023-04-24T05:23:01;3.87;;;2.93;;
14358;SDS011;7263;49.418;11.064;2023-04-24T05:25:33;3.47;;;3.03;;
14358;SDS011;7263;49.418;11.064;2023-04-24T05:28:00;4.57;;;2.90;;
14358;SDS011;7263;49.418;11.064;2023-04-24T05:30:30;5.03;;;2.63;;
14358;SDS011;7263;49.418;11.064;2023-04-24T05:33:01;3.57;;;2.50;;
14358;SDS011;7263;49.418;11.064;2023-04-24T05:35:29;4.63;;;2.90;;
14358;SDS011;7263;49.418;11.064;2023-04-24T05:37:56;3.00;;;2.70;;
14358;SDS011;7263;49.418;11.064;2023-04-24T05:40:23;5.30;;;2.70;;
14358;SDS011;7263;49.418;11.064;2023-04-24T05:42:57;7.10;;;3.20;;
14358;SDS011;7263;49.418;11.064;2023-04-24T05:45:24;5.77;;;2.70;;
14358;SDS011;7263;49.418;11.064;2023-04-24T05:47:52;4.03;;;2.73;;
14358;SDS011;7263;49.418;11.064;2023-04-24T05:50:22;5.77;;;2.70;;
14358;SDS011;7263;49.418;11.064;2023-04-24T05:52:49;3.37;;;2.60;;
14358;SDS011;7263;49.418;11.064;2023-04-24T05:55:18;3.20;;;2.73;;
14358;SDS011;7263;49.418;11.064;2023-04-24T05:57:54;5.10;;;3.10;;
14358;SDS011;7263;49.418;11.064;2023-04-24T06:00:21;2.90;;;2.60;;
14358;SDS011;7263;49.418;11.064;2023-04-24T06:02:48;3.60;;;2.87;;
14358;SDS011;7263;49.418;11.064;2023-04-24T06:05:16;3.10;;;2.80;;
14358;SDS011;7263;49.418;11.064;2023-04-24T06:07:51;4.13;;;2.73;;
14358;SDS011;7263;49.418;11.064;2023-04-24T06:10:24;5.70;;;2.80;;
14358;SDS011;7263;49.418;11.064;2023-04-24T06:12:52;4.43;;;2.97;;
14358;SDS011;7263;49.418;11.064;2023-04-24T06:15:21;4.77;;;2.67;;
14358;SDS011;7263;49.418;11.064;2023-04-24T06:17:48;6.53;;;3.00;;
14358;SDS011;7263;49.418;11.064;2023-04-24T06:20:17;3.43;;;2.53;;
14358;SDS011;7263;49.418;11.064;2023-04-24T06:22:49;6.83;;;2.60;;
14358;SDS011;7263;49.418;11.064;2023-04-24T06:25:19;6.77;;;2.70;;
14358;SDS011;7263;49.418;11.064;2023-04-24T06:27:46;3.77;;;2.03;;
14358;SDS011;7263;49.418;11.064;2023-04-24T06:30:13;2.73;;;1.97;;
14358;SDS011;7263;49.418;11.064;2023-04-24T06:32:43;2.80;;;1.80;;
14358;SDS011;7263;49.418;11.064;2023-04-24T06:35:12;2.27;;;2.00;;
14358;SDS011;7263;49.418;11.064;2023-04-24T06:37:39;1.90;;;1.80;;
14358;SDS011;7263;49.418;11.064;2023-04-24T06:40:09;3.00;;;2.00;;
14358;SDS011;7263;49.418;11.064;2023-04-24T06:42:38;1.87;;;1.30;;
14358;SDS011;7263;49.418;11.064;2023-04-24T06:45:12;1.50;;;1.20;;
14358;SDS011;7263;49.418;11.064;2023-04-24T06:47:39;1.70;;;1.17;;
14358;SDS011;7263;49.418;11.064;2023-04-24T06:50:06;1.43;;;1.10;;
14358;SDS011;7263;49.418;11.064;2023-04-24T06:52:34;1.20;;;1.00;;
14358;SDS011;7263;49.418;11.064;2023-04-24T06:55:05;1.73;;;1.00;;
14358;SDS011;7263;49.418;11.064;2023-04-24T06:57:44;1.13;;;1.03;;
14358;SDS011;7263;49.418;11.064;2023-04-24T07:00:20;3.70;;;1.03;;
14358;SDS011;7263;49.418;11.064;2023-04-24T07:02:49;3.07;;;1.10;;
14358;SDS011;7263;49.418;11.064;2023-04-24T07:05:16;1.87;;;0.80;;
14358;SDS011;7263;49.418;11.064;2023-04-24T07:07:48;2.07;;;0.90;;
14358;SDS011;7263;49.418;11.064;2023-04-24T07:10:22;1.30;;;0.80;;
14358;SDS011;7263;49.418;11.064;2023-04-24T07:13:00;2.10;;;1.00;;
14358;SDS011;7263;49.418;11.064;2023-04-24T07:15:27;1.47;;;0.90;;
14358;SDS011;7263;49.418;11.064;2023-04-24T07:17:55;1.20;;;1.00;;
14358;SDS011;7263;49.418;11.064;2023-04-24T07:20:22;0.80;;;0.70;;
14358;SDS011;7263;49.418;11.064;2023-04-24T07:22:54;2.43;;;1.10;;
14358;SDS011;7263;49.418;11.064;2023-04-24T07:25:25;2.90;;;1.03;;
14358;SDS011;7263;49.418;11.064;2023-04-24T07:27:57;1.07;;;0.97;;
14358;SDS011;7263;49.418;11.064;2023-04-24T07:30:24;1.57;;;1.10;;
14358;SDS011;7263;49.418;11.064;2023-04-24T07:32:53;1.70;;;1.13;;
14358;SDS011;7263;49.418;11.064;2023-04-24T07:35:20;1.67;;;1.10;;
14358;SDS011;7263;49.418;11.064;2023-04-24T07:37:47;1.30;;;1.20;;
14358;SDS011;7263;49.418;11.064;2023-04-24T07:40:18;2.20;;;1.30;;
14358;SDS011;7263;49.418;11.064;2023-04-24T07:42:50;1.53;;;1.17;;
14358;SDS011;7263;49.418;11.064;2023-04-24T07:45:19;2.60;;;1.20;;
14358;SDS011;7263;49.418;11.064;2023-04-24T07:47:49;1.87;;;1.20;;
14358;SDS011;7263;49.418;11.064;2023-04-24T07:50:20;1.63;;;1.30;;
14358;SDS011;7263;49.418;11.064;2023-04-24T07:52:47;2.10;;;1.23;;
14358;SDS011;7263;49.418;11.064;2023-04-24T07:55:15;3.83;;;1.20;;
14358;SDS011;7263;49.418;11.064;2023-04-24T07:57:42;1.50;;;1.30;;
14358;SDS011;7263;49.418;11.064;2023-04-24T08:00:17;1.50;;;1.40;;
14358;SDS011;7263;49.418;11.064;2023-04-24T08:02:44;1.77;;;1.40;;
14358;SDS011;7263;49.418;11.064;2023-04-24T08:05:17;1.33;;;1.20;;
14358;SDS011;7263;49.418;11.064;2023-04-24T08:07:44;1.43;;;1.33;;
14358;SDS011;7263;49.418;11.064;2023-04-24T08:10:13;2.17;;;1.50;;
14358;SDS011;7263;49.418;11.064;2023-04-24T08:12:41;1.60;;;1.30;;
14358;SDS011;7263;49.418;11.064;2023-04-24T08:15:08;1.50;;;1.40;;
14358;SDS011;7263;49.418;11.064;2023-04-24T08:17:38;1.60;;;1.50;;
14358;SDS011;7263;49.418;11.064;2023-04-24T08:20:13;1.60;;;1.30;;
14358;SDS011;7263;49.418;11.064;2023-04-24T08:22:40;2.00;;;1.50;;
14358;SDS011;7263;49.418;11.064;2023-04-24T08:25:11;1.87;;;1.47;;
14358;SDS011;7263;49.418;11.064;2023-04-24T08:27:38;2.63;;;1.47;;
14358;SDS011;7263;49.418;11.064;2023-04-24T08:30:12;1.67;;;1.50;;
14358;SDS011;7263;49.418;11.064;2023-04-24T08:32:43;1.77;;;1.67;;
14358;SDS011;7263;49.418;11.064;2023-04-24T08:35:10;2.00;;;1.67;;
14358;SDS011;7263;49.418;11.064;2023-04-24T08:37:46;2.07;;;1.53;;
14358;SDS011;7263;49.418;11.064;2023-04-24T08:40:16;2.43;;;1.60;;
14358;SDS011;7263;49.418;11.064;2023-04-24T08:42:45;1.67;;;1.57;;
14358;SDS011;7263;49.418;11.064;2023-04-24T08:45:13;1.37;;;1.27;;
14358;SDS011;7263;49.418;11.064;2023-04-24T08:47:42;2.00;;;1.63;;
14358;SDS011;7263;49.418;11.064;2023-04-24T08:50:10;2.00;;;1.50;;
14358;SDS011;7263;49.418;11.064;2023-04-24T08:52:40;3.10;;;1.40;;
14358;SDS011;7263;49.418;11.064;2023-04-24T08:55:09;1.60;;;1.50;;
14358;SDS011;7263;49.418;11.064;2023-04-24T08:57:39;2.03;;;1.43;;
14358;SDS011;7263;49.418;11.064;2023-04-24T09:00:10;1.90;;;1.60;;
14358;SDS011;7263;49.418;11.064;2023-04-24T09:02:39;1.90;;;1.40;;
14358;SDS011;7263;49.418;11.064;2023-04-24T09:05:16;1.50;;;1.40;;
14358;SDS011;7263;49.418;11.064;2023-04-24T09:07:49;2.80;;;1.63;;
14358;SDS011;7263;49.418;11.064;2023-04-24T09:10:19;2.97;;;1.60;;
14358;SDS011;7263;49.418;11.064;2023-04-24T09:12:46;1.70;;;1.40;;
14358;SDS011;7263;49.418;11.064;2023-04-24T09:15:20;1.87;;;1.53;;
14358;SDS011;7263;49.418;11.064;2023-04-24T09:17:51;3.63;;;1.40;;
14358;SDS011;7263;49.418;11.064;2023-04-24T09:20:23;3.50;;;1.90;;
14358;SDS011;7263;49.418;11.064;2023-04-24T09:22:54;1.77;;;1.67;;
14358;SDS011;7263;49.418;11.064;2023-04-24T09:25:22;1.87;;;1.17;;
14358;SDS011;7263;49.418;11.064;2023-04-24T09:27:53;1.57;;;1.40;;
14358;SDS011;7263;49.418;11.064;2023-04-24T09:30:23;2.07;;;1.53;;
14358;SDS011;7263;49.418;11.064;2023-04-24T09:35:42;1.40;;;1.30;;
14358;SDS011;7263;49.418;11.064;2023-04-24T09:38:09;1.60;;;1.30;;
14358;SDS011;7263;49.418;11.064;2023-04-24T09:40:41;1.97;;;1.70;;
14358;SDS011;7263;49.418;11.064;2023-04-24T09:43:12;2.90;;;1.90;;
14358;SDS011;7263;49.418;11.064;2023-04-24T09:45:40;2.77;;;1.50;;
14358;SDS011;7263;49.418;11.064;2023-04-24T09:48:08;1.50;;;1.40;;
14358;SDS011;7263;49.418;11.064;2023-04-24T09:50:46;1.40;;;1.30;;
14358;SDS011;7263;49.418;11.064;2023-04-24T09:53:18;1.40;;;1.30;;
14358;SDS011;7263;49.418;11.064;2023-04-24T09:55:50;2.70;;;1.20;;
14358;SDS011;7263;49.418;11.064;2023-04-24T09:58:26;1.97;;;1.40;;
14358;SDS011;7263;49.418;11.064;2023-04-24T10:00:56;1.40;;;1.30;;
14358;SDS011;7263;49.418;11.064;2023-04-24T10:03:29;1.80;;;1.23;;
14358;SDS011;7263;49.418;11.064;2023-04-24T10:05:59;1.30;;;1.20;;
14358;SDS011;7263;49.418;11.064;2023-04-24T10:08:27;2.03;;;1.27;;
14358;SDS011;7263;49.418;11.064;2023-04-24T10:11:01;1.60;;;1.40;;
14358;SDS011;7263;49.418;11.064;2023-04-24T10:13:28;1.30;;;1.20;;
14358;SDS011;7263;49.418;11.064;2023-04-24T10:15:55;1.40;;;1.20;;
14358;SDS011;7263;49.418;11.064;2023-04-24T10:18:23;1.83;;;1.10;;
14358;SDS011;7263;49.418;11.064;2023-04-24T10:20:53;1.67;;;1.00;;
14358;SDS011;7263;49.418;11.064;2023-04-24T10:23:22;1.43;;;1.00;;
14358;SDS011;7263;49.418;11.064;2023-04-24T10:25:51;1.10;;;1.00;;
14358;SDS011;7263;49.418;11.064;2023-04-24T10:28:21;0.90;;;0.90;;
14358;SDS011;7263;49.418;11.064;2023-04-24T10:30:49;1.13;;;0.97;;
14358;SDS011;7263;49.418;11.064;2023-04-24T10:33:16;1.50;;;1.10;;
14358;SDS011;7263;49.418;11.064;2023-04-24T10:35:47;1.57;;;1.17;;
14358;SDS011;7263;49.418;11.064;2023-04-24T10:38:18;2.33;;;0.80;;
14358;SDS011;7263;49.418;11.064;2023-04-24T10:40:51;0.70;;;0.70;;
14358;SDS011;7263;49.418;11.064;2023-04-24T10:43:47;1.15;;;1.05;;
14358;SDS011;7263;49.418;11.064;2023-04-24T10:46:16;0.70;;;0.70;;
14358;SDS011;7263;49.418;11.064;2023-04-24T10:48:52;1.10;;;0.77;;
14358;SDS011;7263;49.418;11.064;2023-04-24T10:51:21;0.95;;;0.90;;
14358;SDS011;7263;49.418;11.064;2023-04-24T10:54:04;1.25;;;0.98;;
14358;SDS011;7263;49.418;11.064;2023-04-24T10:56:51;2.43;;;0.93;;
14358;SDS011;7263;49.418;11.064;2023-04-24T10:59:24;1.10;;;1.00;;
14358;SDS011;7263;49.418;11.064;2023-04-24T11:02:03;1.17;;;0.90;;
14358;SDS011;7263;49.418;11.064;2023-04-24T11:04:37;3.87;;;0.90;;
14358;SDS011;7263;49.418;11.064;2023-04-24T11:07:08;0.70;;;0.70;;
14358;SDS011;7263;49.418;11.064;2023-04-24T11:09:40;0.83;;;0.80;;
14358;SDS011;7263;49.418;11.064;2023-04-24T11:12:09;1.30;;;1.10;;
14358;SDS011;7263;49.418;11.064;2023-04-24T11:17:30;0.70;;;0.70;;
14358;SDS011;7263;49.418;11.064;2023-04-24T11:20:02;1.10;;;0.70;;
14358;SDS011;7263;49.418;11.064;2023-04-24T11:22:32;1.33;;;0.93;;
14358;SDS011;7263;49.418;11.064;2023-04-24T11:25:06;1.00;;;0.90;;
14358;SDS011;7263;49.418;11.064;2023-04-24T11:27:40;1.37;;;1.17;;
14358;SDS011;7263;49.418;11.064;2023-04-24T11:30:11;2.80;;;0.90;;
14358;SDS011;7263;49.418;11.064;2023-04-24T11:32:47;1.73;;;1.07;;
14358;SDS011;7263;49.418;11.064;2023-04-24T11:35:17;1.20;;;0.93;;
14358;SDS011;7263;49.418;11.064;2023-04-24T11:37:48;4.73;;;1.20;;
14358;SDS011;7263;49.418;11.064;2023-04-24T11:40:22;4.13;;;1.33;;
14358;SDS011;7263;49.418;11.064;2023-04-24T11:42:52;1.20;;;1.10;;
14358;SDS011;7263;49.418;11.064;2023-04-24T11:45:21;1.77;;;1.30;;
14358;SDS011;7263;49.418;11.064;2023-04-24T11:47:49;1.30;;;1.20;;
14358;SDS011;7263;49.418;11.064;2023-04-24T11:50:17;2.50;;;1.40;;
14358;SDS011;7263;49.418;11.064;2023-04-24T11:52:45;1.57;;;1.30;;
14358;SDS011;7263;49.418;11.064;2023-04-24T11:55:28;1.20;;;1.10;;
14358;SDS011;7263;49.418;11.064;2023-04-24T11:57:57;1.20;;;1.10;;
14358;SDS011;7263;49.418;11.064;2023-04-24T12:00:28;2.30;;;1.30;;
14358;SDS011;7263;49.418;11.064;2023-04-24T12:03:03;1.20;;;1.10;;
14358;SDS011;7263;49.418;11.064;2023-04-24T12:05:34;1.90;;;1.17;;
14358;SDS011;7263;49.418;11.064;2023-04-24T12:08:04;1.60;;;1.13;;
14358;SDS011;7263;49.418;11.064;2023-04-24T12:10:35;2.67;;;1.60;;
14358;SDS011;7263;49.418;11.064;2023-04-24T12:13:02;3.60;;;1.60;;
14358;SDS011;7263;49.418;11.064;2023-04-24T12:15:29;1.97;;;1.30;;
14358;SDS011;7263;49.418;11.064;2023-04-24T12:17:56;2.23;;;1.30;;
14358;SDS011;7263;49.418;11.064;2023-04-24T12:20:24;1.80;;;1.37;;
14358;SDS011;7263;49.418;11.064;2023-04-24T12:22:53;1.60;;;1.40;;
14358;SDS011;7263;49.418;11.064;2023-04-24T12:25:21;1.40;;;1.30;;
14358;SDS011;7263;49.418;11.064;2023-04-24T12:31:11;1.83;;;1.23;;
14358;SDS011;7263;49.418;11.064;2023-04-24T12:33:38;5.87;;;1.40;;
14358;SDS011;7263;49.418;11.064;2023-04-24T12:36:09;3.03;;;1.30;;
14358;SDS011;7263;49.418;11.064;2023-04-24T12:38:46;1.50;;;0.80;;
14358;SDS011;7263;49.418;11.064;2023-04-24T12:41:18;3.27;;;0.93;;
14358;SDS011;7263;49.418;11.064;2023-04-24T12:43:51;0.87;;;0.87;;
14358;SDS011;7263;49.418;11.064;2023-04-24T12:46:22;1.23;;;0.93;;
14358;SDS011;7263;49.418;11.064;2023-04-24T12:48:51;1.10;;;1.00;;
14358;SDS011;7263;49.418;11.064;2023-04-24T12:51:22;1.80;;;1.40;;
14358;SDS011;7263;49.418;11.064;2023-04-24T12:53:53;2.17;;;1.23;;
14358;SDS011;7263;49.418;11.064;2023-04-24T12:56:20;1.50;;;1.27;;
14358;SDS011;7263;49.418;11.064;2023-04-24T12:58:47;4.47;;;1.33;;
14358;SDS011;7263;49.418;11.064;2023-04-24T13:01:16;1.30;;;1.20;;
14358;SDS011;7263;49.418;11.064;2023-04-24T13:03:45;1.40;;;1.20;;
14358;SDS011;7263;49.418;11.064;2023-04-24T13:06:17;1.30;;;1.20;;
14358;SDS011;7263;49.418;11.064;2023-04-24T13:08:44;1.53;;;1.30;;
14358;SDS011;7263;49.418;11.064;2023-04-24T13:11:12;1.57;;;1.20;;
14358;SDS011;7263;49.418;11.064;2023-04-24T13:13:39;1.10;;;1.10;;
14358;SDS011;7263;49.418;11.064;2023-04-24T13:16:09;1.30;;;1.20;;
14358;SDS011;7263;49.418;11.064;2023-04-24T13:18:36;1.13;;;1.03;;
14358;SDS011;7263;49.418;11.064;2023-04-24T13:21:07;1.27;;;1.17;;
14358;SDS011;7263;49.418;11.064;2023-04-24T13:23:34;1.67;;;1.00;;
14358;SDS011;7263;49.418;11.064;2023-04-24T13:26:01;2.77;;;1.30;;
14358;SDS011;7263;49.418;11.064;2023-04-24T13:28:30;1.60;;;1.37;;
14358;SDS011;7263;49.418;11.064;2023-04-24T13:31:00;1.13;;;1.03;;
14358;SDS011;7263;49.418;11.064;2023-04-24T13:33:30;1.87;;;1.60;;
14358;SDS011;7263;49.418;11.064;2023-04-24T13:36:08;1.27;;;1.17;;
14358;SDS011;7263;49.418;11.064;2023-04-24T13:38:35;1.33;;;1.23;;
14358;SDS011;7263;49.418;11.064;2023-04-24T13:41:01;2.13;;;1.50;;
14358;SDS011;7263;49.418;11.064;2023-04-24T13:43:32;1.43;;;1.33;;
14358;SDS011;7263;49.418;11.064;2023-04-24T13:45:58;1.83;;;1.50;;
14358;SDS011;7263;49.418;11.064;2023-04-24T13:48:28;2.97;;;1.47;;
14358;SDS011;7263;49.418;11.064;2023-04-24T13:51:02;2.70;;;1.60;;
14358;SDS011;7263;49.418;11.064;2023-04-24T13:53:30;3.20;;;1.47;;
14358;SDS011;7263;49.418;11.064;2023-04-24T13:56:00;2.40;;;1.80;;
14358;SDS011;7263;49.418;11.064;2023-04-24T13:58:30;2.40;;;1.93;;
14358;SDS011;7263;49.418;11.064;2023-04-24T14:01:13;6.27;;;2.30;;
14358;SDS011;7263;49.418;11.064;2023-04-24T14:03:50;2.93;;;2.00;;
14358;SDS011;7263;49.418;11.064;2023-04-24T14:06:17;1.90;;;1.80;;
14358;SDS011;7263;49.418;11.064;2023-04-24T14:08:46;4.50;;;2.27;;
14358;SDS011;7263;49.418;11.064;2023-04-24T14:11:13;2.10;;;1.80;;
14358;SDS011;7263;49.418;11.064;2023-04-24T14:13:40;2.23;;;1.70;;
14358;SDS011;7263;49.418;11.064;2023-04-24T14:16:13;1.77;;;1.50;;
14358;SDS011;7263;49.418;11.064;2023-04-24T14:18:40;2.20;;;1.77;;
14358;SDS011;7263;49.418;11.064;2023-04-24T14:21:15;1.73;;;1.50;;
14358;SDS011;7263;49.418;11.064;2023-04-24T14:23:45;1.83;;;1.50;;
14358;SDS011;7263;49.418;11.064;2023-04-24T14:26:14;1.93;;;1.73;;
14358;SDS011;7263;49.418;11.064;2023-04-24T14:28:42;1.90;;;1.70;;
14358;SDS011;7263;49.418;11.064;2023-04-24T14:31:18;1.50;;;1.40;;
14358;SDS011;7263;49.418;11.064;2023-04-24T14:33:47;1.83;;;1.53;;
14358;SDS011;7263;49.418;11.064;2023-04-24T14:36:14;1.87;;;1.50;;
14358;SDS011;7263;49.418;11.064;2023-04-24T14:38:41;1.60;;;1.50;;
14358;SDS011;7263;49.418;11.064;2023-04-24T14:41:15;3.23;;;1.30;;
14358;SDS011;7263;49.418;11.064;2023-04-24T14:43:42;2.93;;;1.87;;
14358;SDS011;7263;49.418;11.064;2023-04-24T14:46:09;1.83;;;1.50;;
14358;SDS011;7263;49.418;11.064;2023-04-24T14:48:36;1.77;;;1.30;;
14358;SDS011;7263;49.418;11.064;2023-04-24T14:51:03;1.83;;;1.57;;
14358;SDS011;7263;49.418;11.064;2023-04-24T14:53:33;1.20;;;1.10;;
14358;SDS011;7263;49.418;11.064;2023-04-24T14:56:01;0.80;;;0.70;;
14358;SDS011;7263;49.418;11.064;2023-04-24T14:58:35;1.07;;;0.93;;
14358;SDS011;7263;49.418;11.064;2023-04-24T15:01:05;1.63;;;0.73;;
14358;SDS011;7263;49.418;11.064;2023-04-24T15:03:38;2.43;;;1.10;;
14358;SDS011;7263;49.418;11.064;2023-04-24T15:06:14;1.60;;;1.20;;
14358;SDS011;7263;49.418;11.064;2023-04-24T15:08:41;1.23;;;1.13;;
14358;SDS011;7263;49.418;11.064;2023-04-24T15:11:12;1.30;;;1.20;;
14358;SDS011;7263;49.418;11.064;2023-04-24T15:13:43;1.60;;;1.30;;